createdAt,value
2022-11-23T00:02:08.083Z,-0.31
2022-11-23T00:04:36.688Z,-0.24
2022-11-23T00:07:05.243Z,-0.21
2022-11-23T00:09:33.999Z,-0.24
2022-11-23T00:12:02.884Z,-0.24
2022-11-23T00:14:31.555Z,-0.26
2022-11-23T00:17:00.258Z,-0.25
2022-11-23T00:19:29.237Z,-0.25
2022-11-23T00:21:57.979Z,-0.21
2022-11-23T00:24:26.559Z,-0.19
2022-11-23T00:26:55.029Z,-0.16
2022-11-23T00:29:23.603Z,-0.15
2022-11-23T00:31:52.237Z,-0.17
2022-11-23T00:34:20.822Z,-0.12
2022-11-23T00:36:51.456Z,-0.06
2022-11-23T00:39:20.022Z,-0.05
2022-11-23T00:41:48.611Z,-0.03
2022-11-23T00:44:17.156Z,-0.02
2022-11-23T00:46:45.668Z,-0.02
2022-11-23T00:49:14.468Z,0.03
2022-11-23T00:51:43.134Z,0.04
2022-11-23T00:54:11.660Z,0.10
2022-11-23T00:56:40.431Z,0.09
2022-11-23T00:59:10.047Z,0.15
2022-11-23T01:01:40.295Z,0.24
2022-11-23T01:04:10.165Z,0.31
2022-11-23T01:06:40.683Z,0.39
2022-11-23T01:09:18.086Z,0.42
2022-11-23T01:11:46.596Z,0.48
2022-11-23T01:14:15.927Z,0.51
2022-11-23T01:16:44.635Z,0.55
2022-11-23T01:19:17.746Z,0.57
2022-11-23T01:21:49.828Z,0.58
2022-11-23T01:24:22.304Z,0.60
2022-11-23T01:26:52.344Z,0.60
2022-11-23T01:29:25.097Z,0.61
2022-11-23T01:31:53.535Z,0.60
2022-11-23T01:34:23.240Z,0.62
2022-11-23T01:36:52.016Z,0.61
2022-11-23T01:39:20.643Z,0.65
2022-11-23T01:41:49.102Z,0.67
2022-11-23T01:44:34.379Z,0.67
2022-11-23T01:47:08.894Z,0.62
2022-11-23T01:49:43.279Z,0.60
2022-11-23T01:52:22.574Z,0.59
2022-11-23T01:54:55.903Z,0.56
2022-11-23T01:57:32.119Z,0.56
2022-11-23T02:00:02.676Z,0.55
2022-11-23T02:02:52.175Z,0.59
2022-11-23T02:05:28.563Z,0.61
2022-11-23T02:07:59.620Z,0.63
2022-11-23T02:10:31.870Z,0.67
2022-11-23T02:13:10.572Z,0.73
2022-11-23T02:15:39.920Z,0.77
2022-11-23T02:18:21.852Z,0.79
2022-11-23T02:20:52.087Z,0.82
2022-11-23T02:23:33.947Z,0.82
2022-11-23T02:26:35.328Z,0.80
2022-11-23T02:29:39.143Z,0.80
2022-11-23T02:32:07.759Z,0.79
2022-11-23T02:34:36.286Z,0.79
2022-11-23T02:37:06.492Z,0.84
2022-11-23T02:39:41.344Z,0.83
2022-11-23T02:42:10.601Z,0.85
2022-11-23T02:45:19.705Z,0.84
2022-11-23T02:47:49.489Z,0.88
2022-11-23T02:50:18.111Z,0.94
2022-11-23T02:52:46.586Z,0.93
2022-11-23T02:55:16.797Z,0.91
2022-11-23T02:57:45.384Z,0.85
2022-11-23T03:00:15.078Z,0.85
2022-11-23T03:02:44.212Z,0.87
2022-11-23T03:05:13.685Z,0.86
2022-11-23T03:07:42.767Z,0.84
2022-11-23T03:10:13.526Z,0.81
2022-11-23T03:12:41.982Z,0.81
2022-11-23T03:15:15.132Z,0.82
2022-11-23T03:17:43.815Z,0.85
2022-11-23T03:20:13.774Z,0.90
2022-11-23T03:22:44.042Z,0.96
2022-11-23T03:25:14.351Z,1.03
2022-11-23T03:27:44.386Z,1.08
2022-11-23T03:30:13.330Z,1.12
2022-11-23T03:32:41.912Z,1.18
2022-11-23T03:35:10.758Z,1.23
2022-11-23T03:37:49.941Z,1.25
2022-11-23T03:40:18.517Z,1.33
2022-11-23T03:43:15.796Z,1.37
2022-11-23T03:45:44.484Z,1.40
2022-11-23T03:48:13.187Z,1.44
2022-11-23T03:50:41.884Z,1.47
2022-11-23T03:53:10.586Z,1.51
2022-11-23T03:55:39.440Z,1.53
2022-11-23T03:58:08.096Z,1.58
2022-11-23T04:00:37.510Z,1.59
2022-11-23T04:03:06.254Z,1.61
2022-11-23T04:06:24.831Z,1.64
2022-11-23T04:09:07.208Z,1.69
2022-11-23T04:11:49.429Z,1.76
2022-11-23T04:14:17.987Z,1.78
2022-11-23T04:16:46.541Z,1.81
2022-11-23T04:19:15.262Z,1.82
2022-11-23T04:21:44.551Z,1.84
2022-11-23T04:24:13.252Z,1.88
2022-11-23T04:26:42.870Z,1.93
2022-11-23T04:29:13.795Z,1.98
2022-11-23T04:31:46.890Z,2.00
2022-11-23T04:34:18.411Z,2.07
2022-11-23T04:36:47.184Z,2.09
2022-11-23T04:39:15.883Z,2.10
2022-11-23T04:41:56.670Z,2.09
2022-11-23T04:44:25.502Z,2.11
2022-11-23T04:46:59.111Z,2.15
2022-11-23T04:49:28.157Z,2.20
2022-11-23T04:51:56.925Z,2.22
2022-11-23T04:54:30.885Z,2.21
2022-11-23T04:57:00.665Z,2.24
2022-11-23T04:59:30.468Z,2.27
2022-11-23T05:02:00.953Z,2.30
2022-11-23T05:04:48.228Z,2.33
2022-11-23T05:07:18.769Z,2.37
2022-11-23T05:09:53.349Z,2.41
2022-11-23T05:12:23.927Z,2.43
2022-11-23T05:15:05.919Z,2.49
2022-11-23T05:17:39.791Z,2.46
2022-11-23T05:20:22.570Z,2.47
2022-11-23T05:22:56.751Z,2.48
2022-11-23T05:25:34.890Z,2.53
2022-11-23T05:28:56.743Z,2.53
2022-11-23T05:31:34.322Z,2.52
2022-11-23T05:34:07.389Z,2.55
2022-11-23T05:37:07.418Z,2.60
2022-11-23T05:42:34.992Z,2.66
2022-11-23T05:45:11.990Z,2.75
2022-11-23T05:47:44.062Z,2.82
2022-11-23T05:50:27.219Z,2.88
2022-11-23T05:53:15.922Z,2.97
2022-11-23T05:55:46.677Z,2.99
2022-11-23T05:58:15.860Z,3.05
2022-11-23T06:00:45.038Z,3.10
2022-11-23T06:03:14.405Z,3.17
2022-11-23T06:05:43.341Z,3.24
2022-11-23T06:08:13.399Z,3.27
2022-11-23T06:10:42.722Z,3.31
2022-11-23T06:13:12.153Z,3.38
2022-11-23T06:15:40.942Z,3.41
2022-11-23T06:18:10.307Z,3.44
2022-11-23T06:20:45.907Z,3.49
2022-11-23T06:23:15.001Z,3.51
2022-11-23T06:25:44.151Z,3.52
2022-11-23T06:28:36.580Z,3.59
2022-11-23T06:31:07.669Z,3.63
2022-11-23T06:33:36.959Z,3.66
2022-11-23T06:36:06.638Z,3.68
2022-11-23T06:38:42.030Z,3.74
2022-11-23T06:41:18.512Z,3.76
2022-11-23T06:43:49.717Z,3.80
2022-11-23T06:46:30.166Z,3.83
2022-11-23T06:48:59.117Z,3.91
2022-11-23T06:51:27.987Z,3.94
2022-11-23T06:53:58.176Z,3.98
2022-11-23T06:56:27.880Z,4.00
2022-11-23T06:58:57.541Z,4.00
2022-11-23T07:01:28.322Z,4.01
2022-11-23T07:04:01.875Z,4.05
2022-11-23T07:06:34.794Z,4.07
2022-11-23T07:09:07.886Z,4.02
2022-11-23T07:11:49.842Z,4.02
2022-11-23T07:14:18.605Z,4.06
2022-11-23T07:16:52.442Z,4.11
2022-11-23T07:19:21.266Z,4.12
2022-11-23T07:21:50.641Z,4.14
2022-11-23T07:24:19.441Z,4.16
2022-11-23T07:26:48.332Z,4.19
2022-11-23T07:29:17.181Z,4.18
2022-11-23T07:31:46.099Z,4.20
2022-11-23T07:34:15.768Z,4.21
2022-11-23T07:36:45.057Z,4.20
2022-11-23T07:39:14.734Z,4.24
2022-11-23T07:41:45.160Z,4.29
2022-11-23T07:47:48.263Z,4.39
2022-11-23T07:50:17.310Z,4.37
2022-11-23T07:52:46.018Z,4.35
2022-11-23T07:55:14.846Z,4.33
2022-11-23T07:57:43.731Z,4.35
2022-11-23T08:00:12.893Z,4.35
2022-11-23T08:02:57.803Z,4.34
2022-11-23T08:05:35.858Z,4.33
2022-11-23T08:08:04.739Z,4.34
2022-11-23T08:10:35.011Z,4.37
2022-11-23T08:13:07.317Z,4.39
2022-11-23T08:15:36.364Z,4.42
2022-11-23T08:21:29.485Z,4.52
2022-11-23T08:23:58.218Z,4.53
2022-11-23T08:26:32.336Z,4.60
2022-11-23T08:31:23.505Z,4.71
2022-11-23T08:33:52.592Z,4.75
2022-11-23T08:36:21.740Z,4.80
2022-11-23T08:38:54.510Z,4.85
2022-11-23T08:41:24.114Z,4.88
2022-11-23T08:43:53.009Z,4.90
2022-11-23T08:46:21.992Z,4.91
2022-11-23T08:48:50.935Z,4.96
2022-11-23T08:51:22.994Z,4.93
2022-11-23T08:53:51.911Z,4.99
2022-11-23T08:56:20.789Z,5.02
2022-11-23T08:58:49.923Z,5.10
2022-11-23T09:01:19.045Z,5.10
2022-11-23T09:03:47.870Z,5.15
2022-11-23T09:06:16.866Z,5.17
2022-11-23T09:08:45.771Z,5.17
2022-11-23T09:11:18.463Z,5.19
2022-11-23T09:13:47.132Z,5.21
2022-11-23T09:16:15.864Z,5.21
2022-11-23T09:18:45.307Z,5.19
2022-11-23T09:21:14.115Z,5.25
2022-11-23T09:23:42.987Z,5.24
2022-11-23T09:26:11.731Z,5.28
2022-11-23T09:28:44.699Z,5.32
2022-11-23T09:31:14.092Z,5.31
2022-11-23T09:59:10.234Z,5.72
2022-11-23T10:01:38.248Z,5.69
2022-11-23T10:04:07.037Z,5.65
2022-11-23T10:06:40.148Z,5.69
2022-11-23T10:09:42.969Z,5.69
2022-11-23T10:12:39.779Z,5.72
2022-11-23T10:15:26.612Z,5.74
2022-11-23T10:18:34.848Z,5.77
2022-11-23T10:21:57.568Z,5.84
2022-11-23T10:24:34.867Z,5.89
2022-11-23T10:27:11.244Z,5.97
2022-11-23T10:29:40.926Z,6.01
2022-11-23T10:32:37.857Z,6.08
2022-11-23T10:35:15.019Z,6.12
2022-11-23T10:41:04.438Z,6.17
2022-11-23T10:43:55.337Z,6.13
2022-11-23T10:46:37.673Z,6.15
2022-11-23T10:49:29.870Z,6.20
2022-11-23T10:52:26.458Z,6.23
2022-11-23T10:55:02.212Z,6.30
2022-11-23T10:57:42.601Z,6.28
2022-11-23T11:00:13.315Z,6.22
2022-11-23T11:02:55.454Z,6.26
2022-11-23T11:11:09.103Z,6.31
2022-11-23T11:13:46.512Z,6.27
2022-11-23T11:16:25.660Z,6.26
2022-11-23T11:18:54.948Z,6.28
2022-11-23T11:21:34.887Z,6.22
2022-11-23T11:24:18.326Z,6.22
2022-11-23T11:26:54.257Z,6.21
2022-11-23T11:32:55.974Z,6.26
2022-11-23T11:39:15.411Z,6.12
2022-11-23T11:41:46.133Z,6.08
2022-11-23T11:44:24.685Z,6.11
2022-11-23T11:47:36.996Z,6.12
2022-11-23T11:53:22.673Z,6.21
2022-11-23T11:56:01.749Z,6.20
2022-11-23T11:58:33.152Z,6.16
2022-11-23T12:01:40.473Z,6.17
2022-11-23T12:04:21.722Z,6.19
2022-11-23T12:07:30.042Z,6.22
2022-11-23T12:10:20.465Z,6.22
2022-11-23T12:12:49.323Z,6.24
2022-11-23T12:15:48.990Z,6.21
2022-11-23T12:18:42.087Z,6.23
2022-11-23T12:21:34.708Z,6.28
2022-11-23T12:24:25.450Z,6.25
2022-11-23T12:27:48.274Z,6.26
2022-11-23T12:30:36.108Z,6.23
2022-11-23T12:33:22.133Z,6.23
2022-11-23T12:39:34.065Z,6.31
2022-11-23T12:42:46.978Z,6.29
2022-11-23T12:45:47.865Z,6.22
2022-11-23T12:49:03.627Z,6.17
2022-11-23T12:51:56.801Z,6.12
2022-11-23T12:54:37.791Z,6.04
2022-11-23T12:57:34.217Z,6.03
2022-11-23T13:00:20.094Z,5.97
2022-11-23T13:02:58.625Z,5.94
2022-11-23T13:06:01.050Z,5.93
2022-11-23T13:08:51.375Z,5.91
2022-11-23T13:11:37.228Z,5.93
2022-11-23T13:14:36.122Z,5.92
2022-11-23T13:21:05.850Z,5.96
2022-11-23T13:23:39.696Z,5.92
2022-11-23T13:26:22.016Z,5.92
2022-11-23T13:28:59.357Z,5.97
2022-11-23T13:31:33.795Z,5.93
2022-11-23T13:34:24.609Z,5.93
2022-11-23T13:40:05.570Z,5.97
2022-11-23T13:42:34.959Z,5.93
2022-11-23T13:45:22.156Z,5.95
2022-11-23T13:48:13.319Z,5.92
2022-11-23T13:50:48.437Z,5.91
2022-11-23T13:53:32.346Z,5.89
2022-11-23T13:56:32.328Z,5.87
2022-11-23T13:59:23.255Z,5.84
2022-11-23T14:02:08.269Z,5.85
2022-11-23T14:04:42.061Z,5.87
2022-11-23T14:07:43.526Z,5.83
2022-11-23T14:10:25.081Z,5.81
2022-11-23T14:13:17.015Z,5.81
2022-11-23T14:16:03.379Z,5.82
2022-11-23T14:18:41.373Z,5.78
2022-11-23T14:25:28.568Z,5.83
2022-11-23T14:28:12.004Z,5.78
2022-11-23T14:31:12.864Z,5.77
2022-11-23T14:33:52.140Z,5.75
2022-11-23T14:36:46.806Z,5.71
2022-11-23T14:39:38.376Z,5.66
2022-11-23T14:42:29.614Z,5.58
2022-11-23T14:45:13.452Z,5.52
2022-11-23T14:47:42.595Z,5.47
2022-11-23T14:50:29.880Z,5.43
2022-11-23T14:53:12.170Z,5.40
2022-11-23T14:55:41.967Z,5.37
2022-11-23T14:58:16.847Z,5.34
2022-11-23T15:00:46.034Z,5.34
2022-11-23T15:06:17.801Z,5.36
2022-11-23T15:08:57.590Z,5.38
2022-11-23T15:22:27.694Z,5.67
2022-11-23T15:25:09.304Z,5.58
2022-11-23T15:27:41.807Z,5.36
2022-11-23T15:30:32.247Z,5.31
2022-11-23T15:33:08.438Z,5.14
2022-11-23T15:35:40.456Z,5.02
2022-11-23T15:38:20.499Z,4.88
2022-11-23T15:40:53.063Z,4.74
2022-11-23T15:43:21.826Z,4.56
2022-11-23T15:45:50.666Z,4.35
2022-11-23T15:48:32.316Z,4.29
2022-11-23T15:51:08.708Z,4.19
2022-11-23T15:53:52.544Z,4.07
2022-11-23T15:56:37.461Z,4.05
2022-11-23T15:59:32.821Z,3.95
2022-11-23T16:02:05.335Z,3.84
2022-11-23T16:04:42.463Z,3.78
2022-11-23T16:07:31.808Z,3.77
2022-11-23T16:10:06.878Z,3.59
2022-11-23T16:12:49.974Z,3.65
2022-11-23T16:28:56.913Z,3.83
2022-11-23T16:31:36.433Z,3.99
2022-11-23T16:34:19.531Z,3.86
2022-11-23T16:39:53.837Z,3.81
2022-11-23T16:42:22.726Z,3.71
2022-11-23T16:44:51.539Z,3.71
2022-11-23T16:47:26.611Z,3.61
2022-11-23T16:49:55.979Z,3.61
2022-11-23T16:52:24.899Z,3.53
2022-11-23T16:54:53.541Z,3.59
2022-11-23T16:57:34.921Z,3.60
2022-11-23T17:00:11.852Z,3.55
2022-11-23T17:02:40.530Z,3.63
2022-11-23T17:05:20.850Z,3.62
2022-11-23T17:07:50.574Z,3.67
2022-11-23T17:10:19.389Z,3.69
2022-11-23T17:12:54.100Z,3.77
2022-11-23T17:15:24.952Z,3.84
2022-11-23T17:17:53.696Z,3.91
2022-11-23T17:20:23.003Z,3.96
2022-11-23T17:22:52.165Z,4.00
2022-11-23T17:25:21.074Z,4.05
2022-11-23T17:27:49.830Z,4.09
2022-11-23T17:30:23.015Z,4.09
2022-11-23T17:32:51.834Z,4.08
2022-11-23T17:35:21.282Z,4.09
2022-11-23T17:37:59.374Z,4.07
2022-11-23T17:40:29.546Z,4.06
2022-11-23T17:43:03.400Z,4.06
2022-11-23T17:45:38.185Z,3.97
2022-11-23T17:48:27.098Z,3.99
2022-11-23T17:51:29.017Z,4.00
2022-11-23T17:54:04.081Z,4.00
2022-11-23T17:56:48.425Z,4.03
2022-11-23T17:59:34.800Z,4.02
2022-11-23T18:02:11.358Z,4.06
2022-11-23T18:04:44.265Z,4.07
2022-11-23T18:07:28.416Z,4.08
2022-11-23T18:10:09.129Z,4.03
2022-11-23T18:12:52.075Z,4.07
2022-11-23T18:15:35.725Z,4.03
2022-11-23T18:18:05.536Z,4.08
2022-11-23T18:20:42.372Z,4.08
2022-11-23T18:24:13.717Z,4.08
2022-11-23T18:26:46.339Z,4.07
2022-11-23T18:29:19.033Z,4.06
2022-11-23T18:31:48.356Z,4.07
2022-11-23T18:34:20.643Z,4.02
2022-11-23T18:37:01.197Z,4.02
2022-11-23T18:39:32.946Z,3.95
2022-11-23T18:42:07.916Z,3.94
2022-11-23T18:47:29.913Z,4.00
2022-11-23T18:50:06.451Z,3.98
2022-11-23T18:56:22.405Z,3.98
2022-11-23T18:59:01.407Z,3.95
2022-11-23T19:15:52.904Z,3.82
2022-11-23T19:18:21.873Z,3.79
2022-11-23T19:20:59.205Z,3.74
2022-11-23T19:23:34.553Z,3.73
2022-11-23T19:26:09.975Z,3.71
2022-11-23T19:28:48.546Z,3.71
2022-11-23T19:31:29.728Z,3.69
2022-11-23T19:34:22.489Z,3.68
2022-11-23T19:36:54.712Z,3.62
2022-11-23T19:39:48.031Z,3.66
2022-11-23T19:42:18.112Z,3.65
2022-11-23T19:45:05.392Z,3.58
2022-11-23T19:47:54.704Z,3.55
2022-11-23T19:50:36.801Z,3.58
2022-11-23T19:53:13.239Z,3.63
2022-11-23T20:10:05.252Z,3.97
2022-11-23T20:12:46.138Z,3.86
2022-11-23T20:15:22.474Z,3.83
2022-11-23T20:18:24.440Z,3.80
2022-11-23T20:21:00.615Z,3.74
2022-11-23T20:23:33.564Z,3.63
2022-11-23T20:26:08.679Z,3.55
2022-11-23T20:28:42.020Z,3.63
2022-11-23T20:31:26.258Z,3.61
2022-11-23T20:34:07.331Z,3.53
2022-11-23T20:36:42.622Z,3.48
2022-11-23T20:39:12.787Z,3.48
2022-11-23T20:41:43.547Z,3.41
2022-11-23T20:44:14.630Z,3.45
2022-11-23T20:47:02.722Z,3.37
2022-11-23T20:49:32.838Z,3.39
2022-11-23T20:52:02.363Z,3.40
2022-11-23T20:54:31.848Z,3.37
2022-11-23T20:57:01.049Z,3.31
2022-11-23T20:59:30.167Z,3.31
2022-11-23T21:02:00.324Z,3.28
2022-11-23T21:04:29.042Z,3.24
2022-11-23T21:06:57.749Z,3.25
2022-11-23T21:09:26.395Z,3.22
2022-11-23T21:12:14.082Z,3.22
2022-11-23T21:14:42.839Z,3.23
2022-11-23T21:17:11.610Z,3.24
2022-11-23T21:19:41.126Z,3.19
2022-11-23T21:22:14.276Z,3.16
2022-11-23T21:24:47.079Z,3.14
2022-11-23T21:27:19.344Z,3.14
2022-11-23T21:29:48.236Z,3.08
2022-11-23T21:43:25.301Z,3.52
2022-11-23T21:46:01.714Z,3.47
2022-11-23T21:48:29.263Z,3.44
2022-11-23T21:51:11.537Z,3.35
2022-11-23T21:53:39.451Z,3.39
2022-11-23T21:56:10.360Z,3.33
2022-11-23T21:58:38.661Z,3.29
2022-11-23T22:01:15.159Z,3.28
2022-11-23T22:03:45.736Z,3.23
2022-11-23T22:06:20.021Z,3.21
2022-11-23T22:08:50.512Z,3.19
2022-11-23T22:11:30.262Z,3.17
2022-11-23T22:14:07.462Z,3.14
2022-11-23T22:16:41.151Z,3.07
2022-11-23T22:19:12.165Z,3.08
2022-11-23T22:21:41.480Z,3.09
2022-11-23T22:24:16.043Z,3.07
2022-11-23T22:26:45.425Z,3.05
2022-11-23T22:29:12.814Z,3.03
2022-11-23T22:31:40.462Z,3.05
2022-11-23T22:34:11.599Z,3.03
2022-11-23T22:36:39.743Z,3.01
2022-11-23T22:39:08.079Z,3.03
2022-11-23T22:41:36.217Z,3.07
2022-11-23T22:44:09.819Z,3.04
2022-11-23T22:46:39.008Z,3.03
2022-11-23T22:49:06.872Z,3.02
2022-11-23T22:51:34.633Z,3.01
2022-11-23T22:54:02.488Z,2.96
2022-11-23T22:56:30.363Z,2.84
2022-11-23T22:58:58.597Z,2.84
2022-11-23T23:01:29.321Z,2.87
2022-11-23T23:04:00.771Z,2.76
2022-11-23T23:06:34.053Z,2.76
2022-11-23T23:09:04.596Z,2.77
2022-11-23T23:11:34.044Z,2.74
2022-11-23T23:14:01.426Z,2.79
2022-11-23T23:16:29.549Z,2.70
2022-11-23T23:18:57.881Z,2.68
2022-11-23T23:21:26.914Z,2.73
2022-11-23T23:23:57.650Z,2.69
2022-11-23T23:26:27.022Z,2.69
2022-11-23T23:29:00.181Z,2.70
2022-11-23T23:31:29.325Z,2.70
2022-11-23T23:33:58.662Z,2.77
2022-11-23T23:36:25.946Z,2.69
2022-11-23T23:38:53.390Z,2.75
2022-11-23T23:41:20.934Z,2.69
2022-11-23T23:43:48.819Z,2.70
2022-11-23T23:46:16.854Z,2.67
2022-11-23T23:48:45.174Z,2.70
2022-11-23T23:51:19.705Z,2.69
2022-11-23T23:53:47.296Z,2.70
2022-11-23T23:56:21.709Z,2.71
2022-11-23T23:58:49.355Z,2.72
